Time;durP1;ratioP1;P1;durP2;ratioP2;P2;SDS_P1;SDS_P2;PMS_P1;PMS_P2;Temp;Humidity;BMP_temperature;BMP_pressure;BME280_temperature;BME280_humidity;BME280_pressure;Samples;Min_cycle;Max_cycle;Signal;HPM_P1;HPM_P2
2022/05/14 00:01:33;;;;;;;6.63;2.40;;;19.10;83.60;;;;;;5011817;28;20034;-76
2022/05/14 00:03:59;;;;;;;11.55;2.90;;;19.10;83.90;;;;;;5011901;28;20395;-75
2022/05/14 00:06:28;;;;;;;7.18;2.35;;;19.00;84.40;;;;;;5013335;28;20026;-76
2022/05/14 00:08:55;;;;;;;12.68;2.97;;;19.00;84.30;;;;;;5012810;28;20435;-75
2022/05/14 00:14:10;;;;;;;8.05;2.40;;;18.90;84.70;;;;;;5012708;28;20269;-73
2022/05/14 00:16:37;;;;;;;8.82;2.28;;;18.90;84.80;;;;;;5010911;28;20044;-76
2022/05/14 00:19:04;;;;;;;16.67;2.85;;;18.90;84.80;;;;;;5012105;28;20041;-76
2022/05/14 00:21:32;;;;;;;12.10;2.65;;;18.80;84.80;;;;;;5012166;28;20092;-76
2022/05/14 00:23:58;;;;;;;10.98;2.50;;;18.80;85.00;;;;;;5012008;28;20029;-77
2022/05/14 00:26:24;;;;;;;11.07;2.78;;;18.80;85.10;;;;;;5012211;28;20025;-76
2022/05/14 00:28:50;;;;;;;10.50;3.28;;;18.80;85.30;;;;;;5012217;28;20033;-77
2022/05/14 00:31:17;;;;;;;8.13;2.43;;;18.80;85.10;;;;;;5012046;28;20026;-76
2022/05/14 00:33:45;;;;;;;14.75;2.78;;;18.80;85.10;;;;;;5010840;28;20426;-76
2022/05/14 00:36:12;;;;;;;11.38;2.90;;;18.80;85.00;;;;;;5011767;28;20077;-75
2022/05/14 00:38:39;;;;;;;10.30;2.53;;;18.80;85.00;;;;;;5011586;28;20045;-76
2022/05/14 00:41:07;;;;;;;11.95;2.85;;;18.80;85.00;;;;;;5011514;28;20059;-75
2022/05/14 00:43:46;;;;;;;10.90;3.05;;;18.80;84.90;;;;;;5010170;28;20133;-76
2022/05/14 00:46:20;;;;;;;11.48;3.20;;;18.80;85.00;;;;;;5011986;28;20565;-76
2022/05/14 00:48:48;;;;;;;8.25;2.90;;;18.80;85.00;;;;;;5011888;28;20522;-75
2022/05/14 00:51:18;;;;;;;8.50;3.03;;;18.80;84.70;;;;;;5011634;28;20109;-75
2022/05/14 00:53:50;;;;;;;13.10;2.97;;;18.80;84.70;;;;;;5011553;28;20030;-75
2022/05/14 00:56:21;;;;;;;9.55;2.92;;;18.80;84.70;;;;;;5011422;28;20078;-77
2022/05/14 00:58:56;;;;;;;8.65;2.58;;;18.80;84.60;;;;;;5009930;28;20026;-76
2022/05/14 01:01:22;;;;;;;7.03;2.20;;;18.80;84.60;;;;;;5011575;28;20037;-77
2022/05/14 01:03:48;;;;;;;15.35;3.58;;;18.80;84.30;;;;;;5011197;28;20025;-76
2022/05/14 01:06:18;;;;;;;8.38;2.72;;;18.80;84.10;;;;;;5011208;28;20517;-75
2022/05/14 01:08:46;;;;;;;11.18;2.53;;;18.80;84.00;;;;;;5011617;28;20079;-75
2022/05/14 01:11:12;;;;;;;10.32;2.58;;;18.80;83.90;;;;;;5011332;28;20470;-75
2022/05/14 01:13:38;;;;;;;11.25;2.80;;;18.80;83.80;;;;;;5011421;28;20026;-75
2022/05/14 01:16:05;;;;;;;9.30;2.72;;;18.80;83.30;;;;;;5011419;28;20183;-75
2022/05/14 01:18:34;;;;;;;7.72;2.45;;;18.90;82.70;;;;;;5011131;28;20026;-76
2022/05/14 01:21:04;;;;;;;7.35;2.85;;;19.00;82.60;;;;;;5010961;28;20048;-76
2022/05/14 01:26:35;;;;;;;15.07;3.05;;;18.80;83.20;;;;;;5011465;28;20041;-76
2022/05/14 01:29:09;;;;;;;10.18;2.60;;;18.80;83.60;;;;;;5011463;28;20060;-76
2022/05/14 01:31:37;;;;;;;13.27;2.80;;;18.80;83.80;;;;;;5011280;28;20026;-75
2022/05/14 01:34:06;;;;;;;10.93;3.05;;;18.80;83.70;;;;;;5010869;28;20021;-76
2022/05/14 01:36:34;;;;;;;8.65;2.42;;;18.70;84.30;;;;;;5010783;28;20046;-76
2022/05/14 01:39:00;;;;;;;13.93;3.30;;;18.60;84.70;;;;;;5011174;28;20144;-76
2022/05/14 01:41:26;;;;;;;14.48;2.80;;;18.50;85.20;;;;;;5010738;28;20038;-76
2022/05/14 01:43:52;;;;;;;15.38;3.65;;;18.50;85.80;;;;;;5010919;28;20022;-76
2022/05/14 01:46:18;;;;;;;13.77;2.87;;;18.40;86.00;;;;;;5010902;28;20103;-76
2022/05/14 01:48:46;;;;;;;9.45;3.00;;;18.30;86.40;;;;;;5009348;28;20690;-76
2022/05/14 01:51:13;;;;;;;9.77;2.45;;;18.20;86.50;;;;;;5010852;28;20042;-75
2022/05/14 01:53:39;;;;;;;11.88;3.17;;;18.30;86.50;;;;;;5010902;28;20033;-75
2022/05/14 01:56:05;;;;;;;7.68;2.75;;;18.30;86.50;;;;;;5009236;28;20037;-75
2022/05/14 01:58:37;;;;;;;9.77;2.70;;;18.40;86.40;;;;;;5010800;28;20020;-75
2022/05/14 02:01:27;;;;;;;11.23;2.60;;;18.30;86.10;;;;;;5010772;28;20037;-76
2022/05/14 02:03:57;;;;;;;8.00;2.90;;;18.30;86.30;;;;;;5003318;28;20034;-76
2022/05/14 02:06:24;;;;;;;13.15;3.17;;;18.20;86.70;;;;;;5010975;28;20022;-75
2022/05/14 02:08:50;;;;;;;12.32;2.67;;;18.20;87.00;;;;;;5013879;28;20030;-76
2022/05/14 02:11:17;;;;;;;12.48;3.25;;;18.10;87.20;;;;;;5013074;28;20049;-76
2022/05/14 02:13:44;;;;;;;;;;;18.10;87.50;;;;;;5015066;28;20055;-76
2022/05/14 02:16:10;;;;;;;9.93;2.72;;;18.10;87.60;;;;;;5014476;28;19913;-75
2022/05/14 02:18:37;;;;;;;11.55;3.30;;;18.10;87.70;;;;;;5014568;28;20033;-76
2022/05/14 02:21:04;;;;;;;12.40;2.78;;;18.00;87.80;;;;;;5014435;28;20469;-76
2022/05/14 02:23:30;;;;;;;10.38;2.88;;;18.00;88.00;;;;;;5014402;28;20163;-76
2022/05/14 02:25:57;;;;;;;5.60;2.47;;;18.00;88.10;;;;;;5014392;28;20101;-77
2022/05/14 02:28:23;;;;;;;;;;;18.00;87.80;;;;;;5014808;28;20025;-75
2022/05/14 02:30:50;;;;;;;17.13;2.75;;;18.10;87.50;;;;;;5014274;28;20281;-76
2022/05/14 02:33:16;;;;;;;10.35;2.85;;;18.20;87.30;;;;;;5014161;28;20041;-75
2022/05/14 02:35:43;;;;;;;10.05;3.08;;;18.20;86.70;;;;;;5013997;28;20026;-75
2022/05/14 02:38:10;;;;;;;7.60;2.88;;;18.20;86.60;;;;;;5013717;28;20053;-77
2022/05/14 02:40:36;;;;;;;8.18;2.70;;;18.20;86.60;;;;;;5014043;28;20415;-76
2022/05/14 02:43:02;;;;;;;10.95;2.60;;;18.20;86.50;;;;;;5013836;28;20061;-76
2022/05/14 02:45:28;;;;;;;12.98;3.30;;;18.30;86.10;;;;;;5013607;28;20076;-75
2022/05/14 02:47:54;;;;;;;7.55;2.80;;;18.30;85.90;;;;;;5013730;28;20108;-75
2022/05/14 02:50:21;;;;;;;9.98;2.97;;;18.30;86.20;;;;;;5013375;28;20026;-76
2022/05/14 02:52:47;;;;;;;7.40;2.60;;;18.30;86.00;;;;;;5013306;28;20034;-76
2022/05/14 02:55:14;;;;;;;8.18;3.10;;;18.30;86.20;;;;;;5013561;28;20076;-75
2022/05/14 02:57:40;;;;;;;9.13;2.85;;;18.30;86.20;;;;;;5013753;28;20026;-75
2022/05/14 03:00:10;;;;;;;14.70;2.73;;;18.30;85.90;;;;;;5013312;28;20462;-75
2022/05/14 03:02:37;;;;;;;7.68;2.78;;;18.30;86.00;;;;;;5013646;28;20312;-74
2022/05/14 03:05:39;;;;;;;11.95;3.33;;;18.20;86.20;;;;;;5014496;28;20024;-74
2022/05/14 03:08:56;;;;;;;10.70;2.85;;;18.20;85.70;;;;;;5016116;28;20042;-73
2022/05/14 03:11:26;;;;;;;10.07;2.85;;;18.20;85.90;;;;;;5013658;28;20090;-73
2022/05/14 03:14:35;;;;;;;8.38;2.63;;;18.20;85.90;;;;;;5018246;28;20026;-74
2022/05/14 03:17:01;;;;;;;9.88;2.55;;;18.10;86.90;;;;;;5030631;28;20355;-77
2022/05/14 03:19:27;;;;;;;13.00;2.88;;;18.20;86.30;;;;;;5030404;28;20033;-76
2022/05/14 03:22:46;;;;;;;11.38;3.10;;;18.10;86.20;;;;;;5032931;28;20033;-77
2022/05/14 03:25:12;;;;;;;17.38;3.58;;;18.10;86.20;;;;;;5033043;28;20025;-77
2022/05/14 03:27:38;;;;;;;15.43;3.47;;;18.10;86.60;;;;;;5028640;28;20466;-77
2022/05/14 03:30:54;;;;;;;11.57;2.67;;;18.00;86.90;;;;;;5021973;28;20025;-74
2022/05/14 03:33:20;;;;;;;10.75;2.70;;;18.00;86.50;;;;;;5011550;28;20030;-78
2022/05/14 03:35:46;;;;;;;9.65;2.60;;;18.00;86.60;;;;;;5013598;28;20025;-79
2022/05/14 03:38:13;;;;;;;11.82;2.95;;;18.00;86.50;;;;;;5014741;28;20084;-80
2022/05/14 03:40:39;;;;;;;14.02;3.30;;;18.00;86.90;;;;;;5013970;28;20030;-79
2022/05/14 03:43:05;;;;;;;10.60;2.72;;;18.00;86.50;;;;;;5015074;28;20033;-81
2022/05/14 03:45:31;;;;;;;10.40;2.60;;;18.00;85.50;;;;;;5016359;28;20025;-81
2022/05/14 03:47:59;;;;;;;13.47;2.47;;;18.00;85.90;;;;;;5014811;28;20030;-78
2022/05/14 03:50:26;;;;;;;7.95;2.35;;;18.00;85.90;;;;;;5013488;28;20033;-81
2022/05/14 03:52:52;;;;;;;8.40;2.60;;;18.00;86.20;;;;;;5012907;28;20018;-81
2022/05/14 03:55:18;;;;;;;9.50;3.00;;;18.10;84.90;;;;;;5014299;28;20044;-80
2022/05/14 03:57:44;;;;;;;15.20;3.57;;;18.10;84.90;;;;;;5031983;28;20037;-81
2022/05/14 04:00:11;;;;;;;10.25;2.60;;;18.20;84.90;;;;;;5033249;28;20442;-80
2022/05/14 04:02:37;;;;;;;12.20;2.70;;;18.20;84.60;;;;;;5033702;28;20116;-80
2022/05/14 04:05:04;;;;;;;9.25;2.67;;;18.20;84.60;;;;;;5033057;28;20029;-80
2022/05/14 04:07:33;;;;;;;9.90;2.97;;;18.20;84.20;;;;;;5033082;28;20454;-80
2022/05/14 04:09:59;;;;;;;7.50;2.50;;;18.20;84.10;;;;;;5033207;28;20018;-80
2022/05/14 04:12:27;;;;;;;10.77;2.88;;;18.20;84.50;;;;;;5033186;28;20039;-79
2022/05/14 04:14:53;;;;;;;6.60;2.50;;;18.30;84.00;;;;;;5032877;28;20491;-80
2022/05/14 04:17:19;;;;;;;12.23;2.80;;;18.30;83.60;;;;;;5031836;28;20029;-79
2022/05/14 04:19:45;;;;;;;10.87;2.73;;;18.40;83.00;;;;;;5031876;28;20508;-79
2022/05/14 04:22:11;;;;;;;10.93;3.53;;;18.50;82.20;;;;;;5033767;28;20047;-79
2022/05/14 04:24:37;;;;;;;7.70;2.40;;;18.60;81.50;;;;;;5016800;28;20030;-80
2022/05/14 04:27:04;;;;;;;7.38;2.50;;;18.70;81.40;;;;;;5013784;28;20049;-79
2022/05/14 04:29:30;;;;;;;12.23;3.00;;;18.80;81.50;;;;;;5013780;28;20026;-78
2022/05/14 04:31:56;;;;;;;10.53;2.47;;;18.80;81.50;;;;;;5013401;28;20038;-79
2022/05/14 04:34:22;;;;;;;14.30;2.78;;;18.80;81.80;;;;;;5016162;28;20113;-79
2022/05/14 04:36:48;;;;;;;7.97;2.67;;;18.80;81.90;;;;;;5033012;28;20072;-79
2022/05/14 04:39:14;;;;;;;9.27;2.33;;;18.80;82.20;;;;;;5033393;28;20290;-79
2022/05/14 04:41:40;;;;;;;11.53;2.17;;;18.80;82.00;;;;;;5033134;28;20379;-78
2022/05/14 04:44:06;;;;;;;9.40;2.80;;;18.80;81.30;;;;;;5033525;28;20260;-77
2022/05/14 04:46:35;;;;;;;10.63;2.67;;;18.90;81.70;;;;;;5032230;28;20026;-77
2022/05/14 04:49:03;;;;;;;8.63;2.97;;;18.90;81.80;;;;;;5025478;28;20284;-78
2022/05/14 04:51:29;;;;;;;10.40;2.80;;;18.90;81.90;;;;;;5011971;28;20112;-77
2022/05/14 04:53:55;;;;;;;10.37;3.00;;;19.00;81.80;;;;;;5013697;28;20459;-78
2022/05/14 04:56:21;;;;;;;12.30;2.50;;;19.00;82.20;;;;;;5013346;28;20297;-77
2022/05/14 04:58:47;;;;;;;8.90;2.90;;;19.00;81.90;;;;;;5013455;28;20124;-77
2022/05/14 05:01:13;;;;;;;12.27;2.80;;;19.10;82.00;;;;;;5013033;28;20136;-76
2022/05/14 05:03:42;;;;;;;9.65;2.60;;;19.10;81.40;;;;;;5013167;28;20361;-77
2022/05/14 05:06:13;;;;;;;9.98;2.67;;;19.30;81.20;;;;;;5011905;28;20467;-76
2022/05/14 05:09:40;;;;;;;13.50;2.70;;;19.80;80.00;;;;;;5013543;28;20021;-75
2022/05/14 05:12:06;;;;;;;11.73;2.78;;;20.10;79.30;;;;;;5012581;28;20117;-79
2022/05/14 05:14:34;;;;;;;11.55;2.75;;;20.50;78.00;;;;;;5012943;28;20033;-80
2022/05/14 05:17:00;;;;;;;10.95;2.50;;;21.80;75.60;;;;;;5013339;28;20026;-79
2022/05/14 05:19:26;;;;;;;15.88;3.17;;;23.40;73.10;;;;;;5013183;28;20018;-80
2022/05/14 05:21:52;;;;;;;11.50;2.50;;;25.10;69.80;;;;;;5012795;28;20034;-80
2022/05/14 05:24:18;;;;;;;9.55;2.58;;;26.60;67.30;;;;;;5013064;28;20030;-81
2022/05/14 05:26:44;;;;;;;11.80;2.20;;;27.40;65.10;;;;;;5012771;28;20022;-75
2022/05/14 05:29:10;;;;;;;12.02;2.50;;;28.70;64.10;;;;;;5011618;28;20029;-76
2022/05/14 05:31:39;;;;;;;8.05;2.45;;;30.00;62.10;;;;;;5011363;28;20019;-75
2022/05/14 05:34:05;;;;;;;6.88;2.35;;;31.10;60.10;;;;;;5011441;28;20437;-74
2022/05/14 05:36:32;;;;;;;9.60;2.15;;;31.80;58.60;;;;;;5011245;28;20034;-75
2022/05/14 05:38:58;;;;;;;11.65;2.25;;;32.60;57.90;;;;;;5012115;28;20028;-75
2022/05/14 05:41:24;;;;;;;11.27;2.65;;;33.90;56.30;;;;;;5011675;28;20495;-76
2022/05/14 05:43:50;;;;;;;;;;;33.30;56.00;;;;;;5015403;28;20018;-75
2022/05/14 05:46:16;;;;;;;8.68;2.05;;;33.20;55.70;;;;;;5015469;28;19989;-76
2022/05/14 05:48:42;;;;;;;;;;;31.90;57.10;;;;;;5015714;28;20037;-75
2022/05/14 05:51:09;;;;;;;11.02;2.53;;;32.20;57.30;;;;;;5014620;28;20329;-74
2022/05/14 05:59:05;;;;;;;11.52;2.60;;;31.30;58.80;;;;;;5014888;28;20036;-76
2022/05/14 06:01:31;;;;;;;11.25;2.58;;;31.10;59.40;;;;;;5014565;28;20117;-76
2022/05/14 06:03:57;;;;;;;10.50;2.20;;;32.00;58.30;;;;;;5014574;28;20049;-76
2022/05/14 06:06:24;;;;;;;11.93;2.50;;;32.20;58.60;;;;;;5014795;28;20061;-75
2022/05/14 06:08:51;;;;;;;13.75;2.80;;;32.80;57.30;;;;;;5014946;28;20152;-75
2022/05/14 06:11:18;;;;;;;11.80;2.30;;;32.40;58.40;;;;;;5014524;28;20446;-72
2022/05/14 06:13:44;;;;;;;9.95;2.53;;;32.50;56.40;;;;;;5014468;28;20030;-73
2022/05/14 06:16:11;;;;;;;13.15;2.72;;;32.20;56.40;;;;;;5014572;28;20026;-73
2022/05/14 06:18:38;;;;;;;15.32;2.25;;;32.40;58.10;;;;;;5015397;28;20497;-73
2022/05/14 06:21:05;;;;;;;6.97;2.10;;;34.10;56.30;;;;;;5014699;28;20034;-75
2022/05/14 06:23:32;;;;;;;10.70;2.20;;;35.80;54.60;;;;;;5015711;28;20080;-74
2022/05/14 06:25:59;;;;;;;10.73;2.38;;;37.40;53.00;;;;;;5014200;28;20382;-73
2022/05/14 06:28:25;;;;;;;10.60;2.38;;;38.60;52.50;;;;;;5015700;28;20037;-74
2022/05/14 06:30:51;;;;;;;13.70;2.53;;;39.80;50.80;;;;;;5015477;28;20038;-74
2022/05/14 06:33:19;;;;;;;11.48;2.22;;;40.70;49.30;;;;;;5015741;28;20115;-73
2022/05/14 06:35:45;;;;;;;11.85;2.22;;;40.50;48.80;;;;;;5015644;28;20155;-74
2022/05/14 06:38:13;;;;;;;12.80;2.70;;;40.60;47.00;;;;;;5015254;28;20057;-75
2022/05/14 06:40:40;;;;;;;9.80;2.05;;;39.60;47.70;;;;;;5013996;28;20081;-74
2022/05/14 06:43:08;;;;;;;11.30;2.05;;;39.50;47.40;;;;;;5015740;28;20033;-73
2022/05/14 06:45:34;;;;;;;7.95;2.03;;;39.80;46.40;;;;;;5015364;28;20524;-73
2022/05/14 06:48:01;;;;;;;8.68;2.33;;;40.30;45.10;;;;;;5015648;28;20121;-73
2022/05/14 06:50:31;;;;;;;5.97;1.85;;;40.90;44.80;;;;;;5015274;28;20537;-73
2022/05/14 06:53:01;;;;;;;8.90;1.77;;;41.40;43.60;;;;;;5015204;28;20030;-74
2022/05/14 06:55:32;;;;;;;8.75;2.20;;;42.20;43.10;;;;;;5013736;28;20024;-75
2022/05/14 06:57:58;;;;;;;10.02;2.10;;;42.30;42.10;;;;;;5015629;28;20345;-74
2022/05/14 07:00:25;;;;;;;12.43;1.90;;;42.40;41.60;;;;;;5013486;28;20029;-75
2022/05/14 07:02:52;;;;;;;9.52;2.00;;;42.10;41.10;;;;;;5013593;28;20044;-73
2022/05/14 07:08:03;;;;;;;7.65;2.00;;;41.10;42.20;;;;;;5014834;28;20041;-73
2022/05/14 07:10:29;;;;;;;7.70;2.25;;;39.60;43.50;;;;;;5014861;28;20030;-73
2022/05/14 07:12:56;;;;;;;6.88;1.95;;;38.90;43.90;;;;;;5013125;28;20099;-72
2022/05/14 07:15:22;;;;;;;10.52;2.20;;;38.60;44.10;;;;;;5014616;28;20014;-73
2022/05/14 07:17:48;;;;;;;9.25;2.35;;;38.30;44.90;;;;;;5014373;28;20030;-74
2022/05/14 07:20:14;;;;;;;8.00;2.20;;;37.40;45.20;;;;;;5014213;28;20514;-74
2022/05/14 07:22:41;;;;;;;12.82;2.40;;;36.50;45.90;;;;;;5014542;28;20167;-74
2022/05/14 07:25:08;;;;;;;15.27;2.45;;;35.60;48.20;;;;;;5012539;28;20018;-74
2022/05/14 07:27:34;;;;;;;7.78;2.50;;;35.00;48.60;;;;;;5030225;28;20460;-74
2022/05/14 07:30:01;;;;;;;14.68;2.20;;;34.20;48.60;;;;;;5013450;28;20379;-75
2022/05/14 07:32:27;;;;;;;10.63;2.60;;;33.20;49.40;;;;;;5014675;28;20056;-75
2022/05/14 07:34:53;;;;;;;;;;;32.90;49.90;;;;;;5033568;28;20021;-77
2022/05/14 07:37:23;;;;;;;9.50;2.30;;;32.80;51.80;;;;;;5017157;28;19925;-75
2022/05/14 07:39:55;;;;;;;7.90;2.20;;;32.10;51.10;;;;;;5034008;28;20167;-75
2022/05/14 07:42:35;;;;;;;11.00;2.38;;;31.90;52.60;;;;;;5022374;28;20042;-74
2022/05/14 07:46:16;;;;;;;12.35;2.80;;;32.00;52.70;;;;;;5013914;28;20101;-70
2022/05/14 07:49:45;;;;;;;13.85;3.25;;;30.90;58.30;;;;;;4972329;28;20038;-72
2022/05/14 07:52:44;;;;;;;10.48;3.35;;;30.60;62.50;;;;;;4990430;28;20348;-72
2022/05/14 07:55:10;;;;;;;14.80;3.70;;;31.00;63.50;;;;;;4990380;28;20085;-77
2022/05/14 07:57:37;;;;;;;14.05;3.10;;;31.30;63.00;;;;;;4991245;28;20121;-78
2022/05/14 08:00:05;;;;;;;10.90;3.70;;;30.60;64.70;;;;;;4964928;28;20097;-77
2022/05/14 08:02:37;;;;;;;15.77;4.30;;;30.80;65.90;;;;;;4979315;28;20066;-75
2022/05/14 08:05:05;;;;;;;16.55;4.28;;;30.70;67.00;;;;;;4980300;28;20106;-75
2022/05/14 08:07:32;;;;;;;17.98;4.07;;;30.70;66.70;;;;;;4980167;28;20116;-76
2022/05/14 08:09:58;;;;;;;13.52;4.30;;;30.90;66.70;;;;;;4978631;28;20025;-79
2022/05/14 08:12:38;;;;;;;19.88;4.95;;;30.80;66.30;;;;;;4979903;28;20549;-78
2022/05/14 08:15:06;;;;;;;12.73;4.00;;;30.90;66.40;;;;;;4982915;28;20057;-75
2022/05/14 08:17:34;;;;;;;13.10;3.35;;;30.90;65.40;;;;;;4980525;28;20050;-75
2022/05/14 08:20:02;;;;;;;14.90;4.10;;;30.70;66.00;;;;;;4984202;28;20027;-73
2022/05/14 08:25:12;;;;;;;13.32;4.10;;;30.30;65.50;;;;;;5004499;28;20454;-76
2022/05/14 08:27:45;;;;;;;13.18;3.70;;;29.70;67.00;;;;;;5011933;28;20105;-77
2022/05/14 08:30:32;;;;;;;17.02;3.63;;;30.00;66.20;;;;;;5013038;28;20018;-77
2022/05/14 08:32:59;;;;;;;8.82;3.40;;;29.80;67.00;;;;;;5013429;28;20018;-76
2022/05/14 08:35:25;;;;;;;;;;;29.70;67.00;;;;;;5013788;28;20022;-76
2022/05/14 08:37:52;;;;;;;11.55;3.40;;;29.80;67.00;;;;;;5011594;28;19924;-77
2022/05/14 08:40:28;;;;;;;19.20;3.47;;;30.00;67.00;;;;;;5017977;28;20018;-75
2022/05/14 08:42:55;;;;;;;;;;;30.20;66.80;;;;;;5020658;28;20474;-79
2022/05/14 08:45:24;;;;;;;9.15;3.50;;;30.40;67.90;;;;;;5013150;28;19906;-75
2022/05/14 08:47:59;;;;;;;10.95;3.03;;;30.20;67.90;;;;;;5012930;28;20017;-76
2022/05/14 08:50:36;;;;;;;11.20;3.25;;;30.00;67.70;;;;;;5013033;28;20034;-77
2022/05/14 08:53:06;;;;;;;6.95;2.80;;;29.60;68.30;;;;;;5012267;28;20022;-77
2022/05/14 08:56:13;;;;;;;10.25;3.60;;;29.50;68.00;;;;;;5012237;28;20030;-76
2022/05/14 08:59:01;;;;;;;13.32;4.35;;;29.30;69.40;;;;;;4934807;29;20035;-76
2022/05/14 09:01:30;;;;;;;12.43;3.83;;;29.10;69.70;;;;;;4951174;29;20055;-77
2022/05/14 09:03:56;;;;;;;13.85;4.30;;;28.90;69.00;;;;;;4951493;29;20039;-76
2022/05/14 09:06:22;;;;;;;;;;;28.90;69.40;;;;;;4952099;29;20031;-76
2022/05/14 09:08:49;;;;;;;10.70;3.88;;;28.90;69.40;;;;;;4952111;29;19906;-76
2022/05/14 09:11:45;;;;;;;9.73;3.47;;;29.10;69.40;;;;;;4951735;29;20058;-76
2022/05/14 09:14:26;;;;;;;14.20;4.32;;;28.90;69.10;;;;;;4876180;29;20111;-75
2022/05/14 09:17:02;;;;;;;19.27;4.22;;;28.90;69.10;;;;;;4876344;29;20101;-76
2022/05/14 09:19:37;;;;;;;8.85;3.70;;;29.10;69.00;;;;;;4876091;29;20170;-76
2022/05/14 09:22:27;;;;;;;15.50;4.00;;;29.20;68.90;;;;;;4876042;29;20178;-75
2022/05/14 09:25:14;;;;;;;12.07;2.97;;;28.80;67.80;;;;;;4867556;29;20044;-75
2022/05/14 09:27:47;;;;;;;10.65;3.42;;;28.60;68.30;;;;;;4875210;29;20089;-74
2022/05/14 09:30:35;;;;;;;9.85;3.45;;;28.50;68.60;;;;;;4875774;29;20495;-75
2022/05/14 09:33:03;;;;;;;9.98;3.38;;;28.50;68.60;;;;;;4876055;29;20037;-76
2022/05/14 09:35:35;;;;;;;12.13;3.20;;;28.20;68.70;;;;;;4922514;29;20145;-76
2022/05/14 09:38:27;;;;;;;15.70;3.50;;;28.10;69.00;;;;;;4951528;29;20062;-76
2022/05/14 09:40:55;;;;;;;10.68;3.53;;;27.90;69.20;;;;;;4948967;29;20116;-76
2022/05/14 09:43:29;;;;;;;11.55;3.72;;;28.00;67.90;;;;;;4951634;29;20036;-77
2022/05/14 09:46:00;;;;;;;10.98;3.97;;;27.70;68.30;;;;;;4951572;29;20059;-77
2022/05/14 09:48:36;;;;;;;13.70;3.20;;;27.70;68.00;;;;;;4951071;29;20498;-75
2022/05/14 09:51:06;;;;;;;11.43;3.60;;;27.70;67.30;;;;;;4981338;28;20042;-76
2022/05/14 09:53:39;;;;;;;12.25;3.53;;;27.50;67.90;;;;;;5011816;28;20177;-74
2022/05/14 09:56:17;;;;;;;11.15;3.42;;;27.50;68.40;;;;;;5011230;28;20033;-75
2022/05/14 09:59:36;;;;;;;16.40;3.60;;;27.20;68.80;;;;;;5009662;28;20034;-74
2022/05/14 10:02:30;;;;;;;11.70;3.33;;;27.20;68.40;;;;;;5020132;28;20130;-74
2022/05/14 10:05:28;;;;;;;16.77;3.97;;;27.30;68.70;;;;;;5029007;28;20052;-75
2022/05/14 10:08:01;;;;;;;11.90;3.80;;;27.50;68.60;;;;;;4969666;28;20053;-74
2022/05/14 10:10:54;;;;;;;10.38;3.53;;;27.70;67.80;;;;;;4969938;28;20478;-75
2022/05/14 10:13:44;;;;;;;13.10;3.40;;;27.80;68.40;;;;;;4970145;28;20030;-76
2022/05/14 10:16:17;;;;;;;15.60;3.78;;;27.90;69.30;;;;;;4969878;28;20051;-77
2022/05/14 10:18:56;;;;;;;12.88;3.60;;;28.10;66.70;;;;;;4962996;28;20133;-78
2022/05/14 10:21:46;;;;;;;9.45;2.90;;;28.20;65.60;;;;;;4934186;29;20031;-77
2022/05/14 10:27:54;;;;;;;11.35;2.72;;;28.00;67.20;;;;;;4950582;29;20042;-75
2022/05/14 10:30:26;;;;;;;13.00;3.33;;;27.90;65.40;;;;;;4910115;29;20043;-74
2022/05/14 10:33:01;;;;;;;10.80;2.95;;;27.90;64.70;;;;;;4953909;29;20345;-76
2022/05/14 10:36:04;;;;;;;16.70;3.00;;;27.90;64.20;;;;;;4953740;29;20082;-73
2022/05/14 10:38:46;;;;;;;9.43;2.60;;;27.50;64.00;;;;;;4953550;29;20043;-73
2022/05/14 10:41:26;;;;;;;13.38;3.08;;;27.50;64.20;;;;;;4953095;29;20050;-76
2022/05/14 10:44:03;;;;;;;13.20;2.90;;;27.60;64.70;;;;;;4992576;28;20034;-74
2022/05/14 10:46:32;;;;;;;15.20;3.25;;;27.70;64.60;;;;;;5013945;28;20057;-75
2022/05/14 10:49:07;;;;;;;11.80;3.00;;;27.70;65.20;;;;;;5014127;28;20018;-75
2022/05/14 10:51:37;;;;;;;13.45;3.33;;;27.70;63.80;;;;;;5028554;28;20033;-75
2022/05/14 10:54:23;;;;;;;9.25;2.95;;;27.60;64.50;;;;;;5034368;28;20374;-75
2022/05/14 10:57:33;;;;;;;8.48;2.70;;;27.80;64.60;;;;;;5014205;28;20450;-75
2022/05/14 11:00:12;;;;;;;14.80;2.92;;;28.10;65.60;;;;;;5005876;28;20128;-75
2022/05/14 11:02:52;;;;;;;14.30;3.00;;;28.10;62.90;;;;;;5020972;28;20455;-74
2022/05/14 11:05:54;;;;;;;10.10;2.60;;;28.00;61.90;;;;;;5012394;28;20109;-74
2022/05/14 11:08:34;;;;;;;9.93;2.63;;;28.10;60.40;;;;;;5012343;28;20080;-75
2022/05/14 11:11:29;;;;;;;13.40;2.40;;;28.20;59.70;;;;;;5013241;28;20029;-77
2022/05/14 11:14:03;;;;;;;10.25;2.22;;;28.40;58.50;;;;;;5018407;28;20390;-75
2022/05/14 11:16:45;;;;;;;5.22;2.20;;;28.40;58.20;;;;;;5032684;28;20496;-75
2022/05/14 11:19:24;;;;;;;9.82;2.30;;;28.60;58.20;;;;;;5033529;28;20322;-75
2022/05/14 11:21:50;;;;;;;10.02;2.15;;;28.80;57.30;;;;;;5032773;28;20429;-76
2022/05/14 11:24:17;;;;;;;10.52;2.33;;;29.00;58.00;;;;;;5014151;28;20034;-75
2022/05/14 11:27:04;;;;;;;9.32;2.05;;;28.90;57.70;;;;;;5013830;28;20080;-76
2022/05/14 11:29:35;;;;;;;18.67;2.75;;;29.00;57.60;;;;;;5012547;28;20022;-75
2022/05/14 11:32:17;;;;;;;13.30;2.47;;;29.00;69.30;;;;;;5014289;28;20030;-76
2022/05/14 11:34:55;;;;;;;8.50;2.25;;;29.10;56.20;;;;;;5014376;28;20402;-75
2022/05/14 11:37:37;;;;;;;10.27;2.05;;;28.90;56.20;;;;;;5012345;28;20375;-75
2022/05/14 11:40:25;;;;;;;12.98;2.33;;;28.90;53.40;;;;;;5012768;28;20078;-74
2022/05/14 11:43:13;;;;;;;9.45;2.17;;;28.80;52.80;;;;;;5013719;28;20104;-75
2022/05/14 11:45:51;;;;;;;8.13;2.10;;;28.60;53.00;;;;;;5003049;28;20399;-74
2022/05/14 11:48:43;;;;;;;8.40;2.15;;;28.70;54.00;;;;;;5013872;28;20034;-75
2022/05/14 11:51:15;;;;;;;15.30;2.50;;;28.80;54.80;;;;;;5013773;28;20030;-74
2022/05/14 11:53:50;;;;;;;6.72;1.90;;;28.90;55.80;;;;;;5013994;28;20029;-74
2022/05/14 11:56:31;;;;;;;7.57;2.20;;;28.90;56.00;;;;;;5014664;28;20065;-73
2022/05/14 11:59:07;;;;;;;11.65;2.28;;;28.90;56.50;;;;;;5012774;28;20426;-74
2022/05/14 12:01:39;;;;;;;10.25;2.30;;;28.90;57.50;;;;;;5014674;28;20065;-77
2022/05/14 12:04:14;;;;;;;10.25;2.60;;;28.90;57.60;;;;;;5014508;28;20072;-76
2022/05/14 12:06:53;;;;;;;9.70;2.70;;;28.70;60.60;;;;;;5014604;28;20018;-74
2022/05/14 12:09:27;;;;;;;11.07;2.90;;;28.60;60.30;;;;;;5014341;28;20026;-75
2022/05/14 12:12:02;;;;;;;10.93;2.17;;;28.40;58.80;;;;;;5012704;28;20457;-75
2022/05/14 12:14:32;;;;;;;7.32;2.40;;;28.30;56.80;;;;;;5012465;28;20108;-73
2022/05/14 12:17:02;;;;;;;9.90;2.10;;;28.30;57.40;;;;;;5013846;28;20049;-74
2022/05/14 12:19:38;;;;;;;7.15;2.63;;;28.20;58.50;;;;;;5014085;28;20513;-76
2022/05/14 12:22:06;;;;;;;10.75;2.38;;;28.20;59.40;;;;;;5014092;28;20045;-74
2022/05/14 12:24:40;;;;;;;12.18;2.53;;;28.10;60.40;;;;;;5014239;28;20097;-73
2022/05/14 12:27:17;;;;;;;10.45;2.28;;;28.10;62.20;;;;;;5013985;28;20034;-74
2022/05/14 12:29:59;;;;;;;8.52;2.70;;;27.90;63.40;;;;;;5013915;28;20022;-72
2022/05/14 12:35:16;;;;;;;8.73;2.15;;;27.80;69.90;;;;;;5016132;28;20089;-72
2022/05/14 12:37:43;;;;;;;10.38;2.80;;;27.50;70.80;;;;;;5018938;28;20041;-73
2022/05/14 12:40:30;;;;;;;11.43;2.95;;;27.50;74.10;;;;;;5016962;28;20030;-75
2022/05/14 12:42:58;;;;;;;12.55;2.97;;;27.50;79.40;;;;;;5013968;28;20042;-73
2022/05/14 12:45:39;;;;;;;11.57;2.80;;;27.50;80.70;;;;;;5013849;28;20074;-73
2022/05/14 12:48:07;;;;;;;8.32;2.80;;;27.70;82.30;;;;;;5013864;28;20026;-74
2022/05/14 12:50:33;;;;;;;11.07;2.90;;;27.60;83.10;;;;;;5013718;28;20026;-75
2022/05/14 12:53:11;;;;;;;10.50;3.30;;;27.60;84.50;;;;;;5011851;28;20505;-75
2022/05/14 12:55:46;;;;;;;11.60;3.00;;;27.40;86.90;;;;;;5013817;28;20140;-74
2022/05/14 12:58:18;;;;;;;9.02;3.33;;;27.30;85.90;;;;;;5012261;28;20026;-76
2022/05/14 13:00:49;;;;;;;9.90;2.88;;;27.10;86.20;;;;;;5013531;28;20474;-73
2022/05/14 13:03:31;;;;;;;8.48;2.92;;;27.00;86.30;;;;;;5012604;28;20145;-75
2022/05/14 13:06:03;;;;;;;10.25;3.15;;;27.20;85.90;;;;;;5013195;28;20041;-74
2022/05/14 13:08:31;;;;;;;14.30;4.05;;;27.30;85.70;;;;;;5013466;28;20033;-73
2022/05/14 13:11:04;;;;;;;8.27;3.10;;;27.40;86.60;;;;;;5013395;28;20034;-73
2022/05/14 13:13:37;;;;;;;9.60;2.95;;;27.40;86.20;;;;;;5013688;28;20025;-74
2022/05/14 13:16:17;;;;;;;8.60;2.88;;;27.50;85.70;;;;;;5013429;28;20053;-74
2022/05/14 13:18:50;;;;;;;10.30;3.22;;;27.10;88.70;;;;;;5013874;28;20025;-74
2022/05/14 13:21:29;;;;;;;12.27;3.00;;;27.00;89.40;;;;;;5013324;28;20355;-74
2022/05/14 13:24:19;;;;;;;11.18;3.65;;;26.90;86.30;;;;;;5011634;28;20026;-74
2022/05/14 13:26:47;;;;;;;8.82;3.45;;;26.90;86.50;;;;;;5013254;28;20517;-73
2022/05/14 13:29:35;;;;;;;9.45;3.03;;;26.60;87.10;;;;;;5012662;28;20521;-75
2022/05/14 13:32:21;;;;;;;11.90;3.30;;;26.40;88.90;;;;;;5013179;28;20026;-75
2022/05/14 13:37:49;;;;;;;15.38;3.47;;;26.30;90.40;;;;;;5012988;28;20132;-73